createdAt,value
2018-06-18T00:00:09.885Z,970.88
2018-06-18T00:01:09.841Z,970.91
2018-06-18T00:02:09.798Z,970.91
2018-06-18T00:03:09.747Z,970.89
2018-06-18T00:04:09.743Z,970.87
2018-06-18T00:05:09.656Z,970.95
2018-06-18T00:06:09.614Z,970.93
2018-06-18T00:07:09.573Z,970.94
2018-06-18T00:08:09.530Z,970.98
2018-06-18T00:09:09.517Z,970.99
2018-06-18T00:10:09.432Z,970.93
2018-06-18T00:11:09.390Z,970.95
2018-06-18T00:12:09.340Z,970.98
2018-06-18T00:13:09.295Z,970.96
2018-06-18T00:14:09.297Z,970.94
2018-06-18T00:15:09.206Z,970.95
2018-06-18T00:16:09.159Z,970.90
2018-06-18T00:17:09.117Z,970.90
2018-06-18T00:18:09.066Z,970.92
2018-06-18T00:19:09.054Z,970.86
2018-06-18T00:20:09.009Z,970.90
2018-06-18T00:21:08.929Z,970.88
2018-06-18T00:22:08.886Z,970.93
2018-06-18T00:23:08.873Z,970.90
2018-06-18T00:24:08.827Z,970.93
2018-06-18T00:25:08.753Z,970.90
2018-06-18T00:26:08.746Z,970.93
2018-06-18T00:27:08.658Z,970.90
2018-06-18T00:28:08.612Z,970.89
2018-06-18T00:29:08.610Z,970.92
2018-06-18T00:30:08.538Z,970.90
2018-06-18T00:31:08.478Z,970.92
2018-06-18T00:32:08.436Z,970.92
2018-06-18T00:33:08.392Z,970.86
2018-06-18T00:34:08.398Z,970.89
2018-06-18T00:35:08.294Z,970.91
2018-06-18T00:36:08.251Z,970.93
2018-06-18T00:37:08.207Z,970.94
2018-06-18T00:38:08.167Z,970.94
2018-06-18T00:39:08.147Z,970.93
2018-06-18T00:40:08.067Z,970.92
2018-06-18T00:41:08.023Z,970.91
2018-06-18T00:42:07.976Z,970.87
2018-06-18T00:43:07.962Z,970.92
2018-06-18T00:44:07.885Z,970.91
2018-06-18T00:45:07.884Z,970.88
2018-06-18T00:46:07.791Z,970.87
2018-06-18T00:47:07.745Z,970.88
2018-06-18T00:48:07.702Z,970.90
2018-06-18T00:49:07.655Z,970.90
2018-06-18T00:50:07.642Z,970.89
2018-06-18T00:51:07.596Z,970.94
2018-06-18T00:52:07.519Z,970.90
2018-06-18T00:53:07.472Z,970.91
2018-06-18T00:54:07.433Z,970.91
2018-06-18T00:55:07.413Z,970.88
2018-06-18T00:56:07.337Z,970.85
2018-06-18T00:57:07.319Z,970.86
2018-06-18T00:58:07.245Z,970.90
2018-06-18T00:59:07.196Z,970.91
2018-06-18T01:00:07.151Z,970.97
2018-06-18T01:01:07.106Z,970.97
2018-06-18T01:02:07.090Z,970.98
2018-06-18T01:03:07.012Z,970.96
2018-06-18T01:04:06.999Z,970.97
2018-06-18T01:05:06.925Z,970.95
2018-06-18T01:06:06.881Z,971.01
2018-06-18T01:07:06.829Z,971.00
2018-06-18T01:08:06.782Z,970.99
2018-06-18T01:09:06.770Z,970.95
2018-06-18T01:10:06.690Z,970.98
2018-06-18T01:11:06.648Z,971.04
2018-06-18T01:12:06.599Z,971.04
2018-06-18T01:13:06.584Z,971.09
2018-06-18T01:14:06.510Z,971.08
2018-06-18T01:15:06.464Z,971.10
2018-06-18T01:16:06.414Z,971.09
2018-06-18T01:17:06.401Z,971.09
2018-06-18T01:18:06.323Z,971.07
2018-06-18T01:19:06.310Z,971.05
2018-06-18T01:20:06.231Z,971.05
2018-06-18T01:21:06.192Z,971.04
2018-06-18T01:22:06.139Z,971.07
2018-06-18T01:23:06.091Z,971.08
2018-06-18T01:24:06.079Z,971.07
2018-06-18T01:25:05.999Z,971.09
2018-06-18T01:26:05.953Z,971.13
2018-06-18T01:27:05.908Z,971.12
2018-06-18T01:28:05.862Z,971.08
2018-06-18T01:29:05.864Z,971.09
2018-06-18T01:30:05.769Z,971.06
2018-06-18T01:31:05.720Z,971.10
2018-06-18T01:32:05.675Z,971.09
2018-06-18T01:33:05.629Z,971.05
2018-06-18T01:34:05.621Z,971.07
2018-06-18T01:35:05.534Z,971.11
2018-06-18T01:36:05.490Z,971.09
2018-06-18T01:37:05.442Z,971.09
2018-06-18T01:38:05.400Z,971.07
2018-06-18T01:39:05.390Z,971.04
2018-06-18T01:40:05.348Z,971.01
2018-06-18T01:41:05.259Z,971.02
2018-06-18T01:42:05.210Z,971.01
2018-06-18T01:43:05.165Z,970.99
2018-06-18T01:44:05.118Z,971.01
2018-06-18T01:45:05.105Z,971.01
2018-06-18T01:46:05.026Z,970.98
2018-06-18T01:47:04.981Z,970.97
2018-06-18T01:48:04.933Z,970.96
2018-06-18T01:49:04.889Z,970.91
2018-06-18T01:50:04.872Z,970.86
2018-06-18T01:51:04.793Z,970.88
2018-06-18T01:52:04.748Z,970.84
2018-06-18T01:53:04.732Z,970.85
2018-06-18T01:54:04.654Z,970.89
2018-06-18T01:55:04.606Z,970.91
2018-06-18T01:56:04.602Z,970.95
2018-06-18T01:57:04.564Z,970.93
2018-06-18T01:58:04.471Z,970.91
2018-06-18T01:59:04.418Z,970.88
2018-06-18T02:00:04.373Z,970.89
2018-06-18T02:01:04.377Z,970.89
2018-06-18T02:02:04.283Z,970.93
2018-06-18T02:03:04.235Z,970.90
2018-06-18T02:04:04.187Z,970.93
2018-06-18T02:05:04.142Z,970.93
2018-06-18T02:06:04.125Z,970.91
2018-06-18T02:07:04.052Z,970.90
2018-06-18T02:08:04.031Z,970.93
2018-06-18T02:09:03.955Z,970.93
2018-06-18T02:10:03.906Z,970.98
2018-06-18T02:11:03.860Z,971.00
2018-06-18T02:12:03.813Z,971.01
2018-06-18T02:13:03.809Z,971.01
2018-06-18T02:14:03.720Z,971.00
2018-06-18T02:15:03.673Z,970.96
2018-06-18T02:16:03.625Z,970.97
2018-06-18T02:17:03.578Z,970.97
2018-06-18T02:18:03.572Z,970.99
2018-06-18T02:19:03.482Z,971.01
2018-06-18T02:20:03.438Z,970.99
2018-06-18T02:21:03.387Z,970.99
2018-06-18T02:22:03.342Z,970.98
2018-06-18T02:23:03.326Z,970.96
2018-06-18T02:24:03.250Z,970.97
2018-06-18T02:25:03.201Z,970.90
2018-06-18T02:26:03.156Z,970.92
2018-06-18T02:27:03.152Z,970.91
2018-06-18T02:28:03.062Z,970.95
2018-06-18T02:29:03.010Z,970.98
2018-06-18T02:30:02.965Z,971.02
2018-06-18T02:31:02.921Z,971.04
2018-06-18T02:32:02.901Z,971.03
2018-06-18T02:33:02.824Z,971.09
2018-06-18T02:34:02.785Z,971.08
2018-06-18T02:35:02.763Z,971.08
2018-06-18T02:36:02.685Z,971.09
2018-06-18T02:37:02.633Z,971.08
2018-06-18T02:38:02.586Z,971.08
2018-06-18T02:39:02.573Z,971.06
2018-06-18T02:40:02.491Z,971.10
2018-06-18T02:41:02.445Z,971.13
2018-06-18T02:42:02.429Z,971.05
2018-06-18T02:43:02.351Z,971.12
2018-06-18T02:44:02.318Z,971.09
2018-06-18T02:45:02.252Z,971.10
2018-06-18T02:46:02.211Z,971.04
2018-06-18T02:47:02.194Z,971.03
2018-06-18T02:48:02.117Z,970.95
2018-06-18T02:49:02.074Z,970.97
2018-06-18T02:50:02.020Z,971.04
2018-06-18T02:51:01.968Z,971.11
2018-06-18T02:52:01.953Z,971.13
2018-06-18T02:53:01.878Z,971.17
2018-06-18T02:54:01.826Z,971.15
2018-06-18T02:55:01.779Z,971.14
2018-06-18T02:56:01.766Z,971.09
2018-06-18T02:57:01.690Z,971.09
2018-06-18T02:58:01.670Z,971.05
2018-06-18T02:59:01.595Z,971.04
2018-06-18T03:00:01.541Z,971.04
2018-06-18T03:01:01.495Z,971.01
2018-06-18T03:02:01.490Z,970.99
2018-06-18T03:03:01.399Z,970.93
2018-06-18T03:04:01.353Z,970.87
2018-06-18T03:05:01.307Z,970.88
2018-06-18T03:06:01.258Z,970.89
2018-06-18T03:07:01.241Z,970.90
2018-06-18T03:08:01.166Z,970.91
2018-06-18T03:09:01.122Z,970.92
2018-06-18T03:10:01.069Z,970.97
2018-06-18T03:11:01.025Z,971.01
2018-06-18T03:12:01.003Z,971.03
2018-06-18T03:13:00.924Z,971.11
2018-06-18T03:14:00.877Z,971.13
2018-06-18T03:15:00.857Z,971.13
2018-06-18T03:16:00.783Z,971.13
2018-06-18T03:17:00.736Z,971.14
2018-06-18T03:18:00.685Z,971.15
2018-06-18T03:19:00.664Z,971.16
2018-06-18T03:20:00.636Z,971.19
2018-06-18T03:21:01.275Z,971.21
2018-06-18T03:22:00.515Z,971.26
2018-06-18T03:23:00.456Z,971.26
2018-06-18T03:24:00.402Z,971.26
2018-06-18T03:25:00.389Z,971.20
2018-06-18T03:26:00.305Z,971.18
2018-06-18T03:27:00.255Z,971.13
2018-06-18T03:28:00.207Z,971.14
2018-06-18T03:29:00.160Z,971.12
2018-06-18T03:30:00.148Z,971.14
2018-06-18T03:31:00.100Z,971.10
2018-06-18T03:32:00.021Z,971.06
2018-06-18T03:32:59.967Z,971.11
2018-06-18T03:33:59.919Z,971.13
2018-06-18T03:34:59.871Z,971.13
2018-06-18T03:35:59.855Z,971.16
2018-06-18T03:36:59.777Z,971.23
2018-06-18T03:37:59.730Z,971.25
2018-06-18T03:38:59.711Z,971.29
2018-06-18T03:39:59.671Z,971.32
2018-06-18T03:40:59.586Z,971.34
2018-06-18T03:41:59.539Z,971.33
2018-06-18T03:42:59.521Z,971.31
2018-06-18T03:43:59.441Z,971.31
2018-06-18T03:44:59.394Z,971.24
2018-06-18T03:45:59.346Z,971.23
2018-06-18T03:46:59.298Z,971.22
2018-06-18T03:47:59.291Z,971.22
2018-06-18T03:48:59.201Z,971.18
2018-06-18T03:49:59.153Z,971.19
2018-06-18T03:50:59.106Z,971.24
2018-06-18T03:51:59.057Z,971.28
2018-06-18T03:52:59.041Z,971.28
2018-06-18T03:53:58.964Z,971.29
2018-06-18T03:54:58.914Z,971.32
2018-06-18T03:55:58.867Z,971.31
2018-06-18T03:56:58.819Z,971.28
2018-06-18T03:57:58.806Z,971.23
2018-06-18T03:58:58.721Z,971.20
2018-06-18T03:59:58.675Z,971.25
2018-06-18T04:00:58.626Z,971.18
2018-06-18T04:01:58.611Z,971.23
2018-06-18T04:02:58.560Z,971.24
2018-06-18T04:03:58.513Z,971.26
2018-06-18T04:04:58.438Z,971.26
2018-06-18T04:05:58.418Z,971.30
2018-06-18T04:06:58.339Z,971.27
2018-06-18T04:07:58.289Z,971.27
2018-06-18T04:08:58.240Z,971.31
2018-06-18T04:09:58.193Z,971.31
2018-06-18T04:10:58.192Z,971.33
2018-06-18T04:11:58.095Z,971.32
2018-06-18T04:12:58.050Z,971.38
2018-06-18T04:13:58.000Z,971.38
2018-06-18T04:14:57.950Z,971.38
2018-06-18T04:15:57.933Z,971.38
2018-06-18T04:16:57.894Z,971.42
2018-06-18T04:17:57.806Z,971.43
2018-06-18T04:18:57.757Z,971.44
2018-06-18T04:19:57.707Z,971.44
2018-06-18T04:20:57.694Z,971.44
2018-06-18T04:21:57.647Z,971.40
2018-06-18T04:22:57.562Z,971.40
2018-06-18T04:23:57.515Z,971.43
2018-06-18T04:24:57.470Z,971.42
2018-06-18T04:25:57.451Z,971.43
2018-06-18T04:26:57.368Z,971.42
2018-06-18T04:27:57.323Z,971.39
2018-06-18T04:28:57.307Z,971.37
2018-06-18T04:29:57.228Z,971.34
2018-06-18T04:30:57.189Z,971.35
2018-06-18T04:31:57.131Z,971.36
2018-06-18T04:32:57.080Z,971.33
2018-06-18T04:33:57.059Z,971.33
2018-06-18T04:34:57.023Z,971.31
2018-06-18T04:35:56.937Z,971.32
2018-06-18T04:36:56.889Z,971.34
2018-06-18T04:37:56.848Z,971.37
2018-06-18T04:38:56.834Z,971.35
2018-06-18T04:39:56.747Z,971.40
2018-06-18T04:40:56.695Z,971.41
2018-06-18T04:41:56.647Z,971.39
2018-06-18T04:42:56.599Z,971.40
2018-06-18T04:43:56.582Z,971.38
2018-06-18T04:44:56.505Z,971.40
2018-06-18T04:45:56.490Z,971.38
2018-06-18T04:46:56.410Z,971.38
2018-06-18T04:47:56.359Z,971.36
2018-06-18T04:48:56.310Z,971.37
2018-06-18T04:49:56.296Z,971.38
2018-06-18T04:50:56.218Z,971.38
2018-06-18T04:51:56.167Z,971.35
2018-06-18T04:52:56.121Z,971.36
2018-06-18T04:53:56.078Z,971.34
2018-06-18T04:54:56.055Z,971.31
2018-06-18T04:55:56.022Z,971.27
2018-06-18T04:56:55.925Z,971.31
2018-06-18T04:57:55.878Z,971.30
2018-06-18T04:58:55.829Z,971.32
2018-06-18T04:59:55.783Z,971.32
2018-06-18T05:00:55.764Z,971.29
2018-06-18T05:01:55.722Z,971.30
2018-06-18T05:02:55.634Z,971.28
2018-06-18T05:03:55.592Z,971.29
2018-06-18T05:04:55.583Z,971.29
2018-06-18T05:05:55.490Z,971.31
2018-06-18T05:06:55.445Z,971.30
2018-06-18T05:07:55.398Z,971.32
2018-06-18T05:08:55.362Z,971.32
2018-06-18T05:09:55.332Z,971.31
2018-06-18T05:10:55.251Z,971.38
2018-06-18T05:11:55.202Z,971.39
2018-06-18T05:12:55.192Z,971.36
2018-06-18T05:13:55.140Z,971.39
2018-06-18T05:14:55.059Z,971.40
2018-06-18T05:15:55.045Z,971.37
2018-06-18T05:16:54.967Z,971.34
2018-06-18T05:17:54.922Z,971.34
2018-06-18T05:18:54.868Z,971.35
2018-06-18T05:19:54.820Z,971.35
2018-06-18T05:20:54.806Z,971.34
2018-06-18T05:21:54.724Z,971.35
2018-06-18T05:22:54.679Z,971.39
2018-06-18T05:23:54.627Z,971.43
2018-06-18T05:24:54.581Z,971.42
2018-06-18T05:25:54.586Z,971.46
2018-06-18T05:26:54.490Z,971.43
2018-06-18T05:27:54.439Z,971.47
2018-06-18T05:28:54.395Z,971.45
2018-06-18T05:29:54.345Z,971.47
2018-06-18T05:30:54.334Z,971.50
2018-06-18T05:31:54.252Z,971.47
2018-06-18T05:32:54.234Z,971.47
2018-06-18T05:33:54.156Z,971.48
2018-06-18T05:34:54.107Z,971.42
2018-06-18T05:35:54.104Z,971.43
2018-06-18T05:36:54.012Z,971.41
2018-06-18T05:37:53.998Z,971.40
2018-06-18T05:38:53.926Z,971.41
2018-06-18T05:39:53.915Z,971.41
2018-06-18T05:40:53.828Z,971.40
2018-06-18T05:41:53.780Z,971.42
2018-06-18T05:42:53.735Z,971.44
2018-06-18T05:43:53.684Z,971.42
2018-06-18T05:44:53.678Z,971.43
2018-06-18T05:45:53.591Z,971.38
2018-06-18T05:46:53.546Z,971.41
2018-06-18T05:47:53.495Z,971.40
2018-06-18T05:48:53.447Z,971.42
2018-06-18T05:49:53.436Z,971.43
2018-06-18T05:50:53.356Z,971.44
2018-06-18T05:51:53.307Z,971.46
2018-06-18T05:52:53.264Z,971.43
2018-06-18T05:53:53.241Z,971.43
2018-06-18T05:54:53.167Z,971.44
2018-06-18T05:55:53.153Z,971.48
2018-06-18T05:56:53.074Z,971.50
2018-06-18T05:57:53.028Z,971.52
2018-06-18T05:58:53.014Z,971.50
2018-06-18T05:59:52.935Z,971.51
2018-06-18T06:00:52.889Z,971.54
2018-06-18T06:01:52.845Z,971.54
2018-06-18T06:02:52.796Z,971.55
2018-06-18T06:03:52.778Z,971.53
2018-06-18T06:04:52.701Z,971.53
2018-06-18T06:05:52.654Z,971.52
2018-06-18T06:06:52.637Z,971.50
2018-06-18T06:07:52.564Z,971.48
2018-06-18T06:08:52.515Z,971.50
2018-06-18T06:09:52.466Z,971.49
2018-06-18T06:10:52.454Z,971.57
2018-06-18T06:11:52.375Z,971.59
2018-06-18T06:12:52.361Z,971.62
2018-06-18T06:13:52.314Z,971.62
2018-06-18T06:14:52.241Z,971.59
2018-06-18T06:15:52.188Z,971.56
2018-06-18T06:16:52.181Z,971.58
2018-06-18T06:17:52.093Z,971.54
2018-06-18T06:18:52.081Z,971.58
2018-06-18T06:19:52.005Z,971.60
2018-06-18T06:20:51.955Z,971.61
2018-06-18T06:21:51.910Z,971.64
2018-06-18T06:22:51.895Z,971.62
2018-06-18T06:23:51.815Z,971.64
2018-06-18T06:24:51.806Z,971.64
2018-06-18T06:25:51.722Z,971.67
2018-06-18T06:26:51.674Z,971.66
2018-06-18T06:27:51.628Z,971.66
2018-06-18T06:28:51.620Z,971.62
2018-06-18T06:29:51.542Z,971.68
2018-06-18T06:30:51.494Z,971.70
2018-06-18T06:31:51.454Z,971.71
2018-06-18T06:32:51.403Z,971.74
2018-06-18T06:33:51.384Z,971.73
2018-06-18T06:34:51.306Z,971.79
2018-06-18T06:35:51.269Z,971.81
2018-06-18T06:36:51.214Z,971.81
2018-06-18T06:37:51.205Z,971.85
2018-06-18T06:38:51.162Z,971.88
2018-06-18T06:39:51.082Z,971.88
2018-06-18T06:40:51.034Z,971.87
2018-06-18T06:41:50.988Z,971.87
2018-06-18T06:42:50.939Z,971.87
2018-06-18T06:43:50.940Z,971.88
2018-06-18T06:44:50.849Z,971.89
2018-06-18T06:45:50.803Z,971.92
2018-06-18T06:46:50.756Z,971.91
2018-06-18T06:47:50.724Z,971.93
2018-06-18T06:48:50.762Z,971.91
2018-06-18T06:49:50.659Z,971.92
2018-06-18T06:50:50.578Z,971.91
2018-06-18T06:51:50.532Z,971.89
2018-06-18T06:52:50.497Z,971.88
2018-06-18T06:53:50.441Z,971.89
2018-06-18T06:54:50.434Z,971.86
2018-06-18T06:55:50.355Z,971.87
2018-06-18T06:56:50.306Z,971.89
2018-06-18T06:57:50.265Z,971.88
2018-06-18T06:58:50.214Z,971.90
2018-06-18T06:59:50.213Z,971.90
2018-06-18T07:00:50.128Z,971.91
2018-06-18T07:01:50.084Z,971.95
2018-06-18T07:02:50.039Z,971.99
2018-06-18T07:03:49.991Z,971.98
2018-06-18T07:04:50.458Z,972.04
2018-06-18T07:05:51.287Z,972.05
2018-06-18T07:06:49.930Z,972.03
2018-06-18T07:07:49.814Z,972.03
2018-06-18T07:08:49.768Z,972.02
2018-06-18T07:09:49.725Z,972.04
2018-06-18T07:10:49.678Z,972.04
2018-06-18T07:11:49.674Z,972.06
2018-06-18T07:12:49.589Z,972.06
2018-06-18T07:13:49.585Z,972.06
2018-06-18T07:14:49.499Z,972.05
2018-06-18T07:15:49.455Z,972.04
2018-06-18T07:16:49.454Z,972.14
2018-06-18T07:17:49.366Z,972.14
2018-06-18T07:18:49.324Z,972.11
2018-06-18T07:19:49.314Z,972.10
2018-06-18T07:20:49.232Z,972.08
2018-06-18T07:21:49.232Z,972.07
2018-06-18T07:22:49.189Z,972.08
2018-06-18T07:23:49.131Z,972.04
2018-06-18T07:24:49.060Z,972.04
2018-06-18T07:25:49.011Z,972.03
2018-06-18T07:26:49.073Z,972.04
2018-06-18T07:27:48.921Z,972.01
2018-06-18T07:28:48.885Z,972.10
2018-06-18T07:29:48.833Z,972.10
2018-06-18T07:30:48.793Z,972.13
2018-06-18T07:31:48.785Z,972.15
2018-06-18T07:32:48.702Z,972.15
2018-06-18T07:33:48.656Z,972.18
2018-06-18T07:34:48.613Z,972.20
2018-06-18T07:35:48.568Z,972.21
2018-06-18T07:36:48.567Z,972.19
2018-06-18T07:37:48.482Z,972.19
2018-06-18T07:38:48.434Z,972.21
2018-06-18T07:39:48.391Z,972.23
2018-06-18T07:40:48.346Z,972.22
2018-06-18T07:41:48.346Z,972.19
2018-06-18T07:42:48.260Z,972.18
2018-06-18T07:43:48.257Z,972.17
2018-06-18T07:44:48.172Z,972.20
2018-06-18T07:45:48.130Z,972.20
2018-06-18T07:46:48.083Z,972.22
2018-06-18T07:47:48.040Z,972.21
2018-06-18T07:48:48.034Z,972.21
2018-06-18T07:49:47.951Z,972.23
2018-06-18T07:50:47.906Z,972.24
2018-06-18T07:51:47.997Z,972.24
2018-06-18T07:52:47.821Z,972.24
2018-06-18T07:53:47.819Z,972.23
2018-06-18T07:54:47.730Z,972.25
2018-06-18T07:55:47.689Z,972.28
2018-06-18T07:56:47.643Z,972.28
2018-06-18T07:57:47.601Z,972.31
2018-06-18T07:58:47.600Z,972.32
2018-06-18T07:59:47.512Z,972.35
2018-06-18T08:00:47.468Z,972.31
2018-06-18T08:01:47.431Z,972.31
2018-06-18T08:02:47.382Z,972.30
2018-06-18T08:03:47.377Z,972.29
2018-06-18T08:04:47.295Z,972.29
2018-06-18T08:05:47.251Z,972.32
2018-06-18T08:06:47.208Z,972.33
2018-06-18T08:07:47.169Z,972.40
2018-06-18T08:08:47.175Z,972.41
2018-06-18T08:09:47.084Z,972.35
2018-06-18T08:10:47.048Z,972.40
2018-06-18T08:11:46.992Z,972.44
2018-06-18T08:12:46.953Z,972.40
2018-06-18T08:13:46.938Z,972.40
2018-06-18T08:14:46.865Z,972.41
2018-06-18T08:15:46.821Z,972.39
2018-06-18T08:16:46.778Z,972.46
2018-06-18T08:17:46.772Z,972.46
2018-06-18T08:18:46.693Z,972.42
2018-06-18T08:19:46.647Z,972.39
2018-06-18T08:20:46.604Z,972.48
2018-06-18T08:21:46.561Z,972.45
2018-06-18T08:22:46.549Z,972.42
2018-06-18T08:23:46.558Z,972.44
2018-06-18T08:24:46.442Z,972.46
2018-06-18T08:25:46.394Z,972.42
2018-06-18T08:26:46.346Z,972.42
2018-06-18T08:27:46.311Z,972.44
2018-06-18T08:28:46.297Z,972.46
2018-06-18T08:29:46.216Z,972.45
2018-06-18T08:30:46.175Z,972.42
2018-06-18T08:31:46.144Z,972.43
2018-06-18T08:32:46.125Z,972.43
2018-06-18T08:33:46.051Z,972.46
2018-06-18T08:34:46.040Z,972.46
2018-06-18T08:35:45.962Z,972.51
2018-06-18T08:36:45.917Z,972.47
2018-06-18T08:37:45.905Z,972.51
2018-06-18T08:38:45.830Z,972.53
2018-06-18T08:39:45.796Z,972.55
2018-06-18T08:40:45.777Z,972.54
2018-06-18T08:41:45.703Z,972.57
2018-06-18T08:42:45.690Z,972.54
2018-06-18T08:43:45.618Z,972.53
2018-06-18T08:44:45.577Z,972.56
2018-06-18T08:45:45.575Z,972.55
2018-06-18T08:46:45.521Z,972.52
2018-06-18T08:47:45.492Z,972.56
2018-06-18T08:48:45.405Z,972.51
2018-06-18T08:49:45.364Z,972.51
2018-06-18T08:50:45.341Z,972.52
2018-06-18T08:51:45.280Z,972.56
2018-06-18T08:52:45.268Z,972.55
2018-06-18T08:53:45.194Z,972.56
2018-06-18T08:54:45.151Z,972.51
2018-06-18T08:55:45.107Z,972.48
2018-06-18T08:56:45.069Z,972.48
2018-06-18T08:57:45.114Z,972.47
2018-06-18T08:58:44.983Z,972.48
2018-06-18T08:59:44.982Z,972.45
2018-06-18T09:00:44.897Z,972.48
2018-06-18T09:01:44.859Z,972.48
2018-06-18T09:02:44.814Z,972.45
2018-06-18T09:03:44.774Z,972.49
2018-06-18T09:04:44.815Z,972.43
2018-06-18T09:05:44.690Z,972.42
2018-06-18T09:06:44.648Z,972.43
2018-06-18T09:07:44.606Z,972.39
2018-06-18T09:08:44.562Z,972.49
2018-06-18T09:09:44.554Z,972.48
2018-06-18T09:10:44.479Z,972.48
2018-06-18T09:11:44.471Z,972.53
2018-06-18T09:12:44.397Z,972.49
2018-06-18T09:13:44.355Z,972.48
2018-06-18T09:14:44.311Z,972.51
2018-06-18T09:15:44.273Z,972.50
2018-06-18T09:16:44.261Z,972.47
2018-06-18T09:17:44.189Z,972.48
2018-06-18T09:18:44.147Z,972.52
2018-06-18T09:19:44.104Z,972.51
2018-06-18T09:20:44.096Z,972.49
2018-06-18T09:21:44.031Z,972.50
2018-06-18T09:22:43.982Z,972.53
2018-06-18T09:23:43.997Z,972.55
2018-06-18T09:24:43.898Z,972.50
2018-06-18T09:25:43.896Z,972.48
2018-06-18T09:26:43.814Z,972.46
2018-06-18T09:27:43.774Z,972.46
2018-06-18T09:28:43.734Z,972.46
2018-06-18T09:29:43.696Z,972.46
2018-06-18T09:30:43.682Z,972.47
2018-06-18T09:31:43.612Z,972.42
2018-06-18T09:32:43.661Z,972.43
2018-06-18T09:33:43.526Z,972.39
2018-06-18T09:34:43.527Z,972.43
2018-06-18T09:35:43.457Z,972.45
2018-06-18T09:36:43.402Z,972.46
2018-06-18T09:37:43.365Z,972.45
2018-06-18T09:38:43.316Z,972.44
2018-06-18T09:39:43.337Z,972.50
2018-06-18T09:40:43.237Z,972.47
2018-06-18T09:41:43.200Z,972.44
2018-06-18T09:42:43.147Z,972.49
2018-06-18T09:43:43.112Z,972.49
2018-06-18T09:44:43.109Z,972.44
2018-06-18T09:45:43.026Z,972.46
2018-06-18T09:46:42.983Z,972.48
2018-06-18T09:47:42.940Z,972.44
2018-06-18T09:48:42.901Z,972.48
2018-06-18T09:49:42.892Z,972.45
2018-06-18T09:50:42.815Z,972.43
2018-06-18T09:51:42.775Z,972.45
2018-06-18T09:52:42.754Z,972.40
2018-06-18T09:53:42.691Z,972.41
2018-06-18T09:54:42.650Z,972.38
2018-06-18T09:55:42.665Z,972.38
2018-06-18T09:56:42.566Z,972.37
2018-06-18T09:57:42.554Z,972.42
2018-06-18T09:58:42.482Z,972.42
2018-06-18T09:59:42.439Z,972.40
2018-06-18T10:00:42.399Z,972.43
2018-06-18T10:01:42.400Z,972.41
2018-06-18T10:02:42.355Z,972.47
2018-06-18T10:03:42.272Z,972.53
2018-06-18T10:04:42.235Z,972.54
2018-06-18T10:05:42.186Z,972.56
2018-06-18T10:06:42.145Z,972.53
2018-06-18T10:07:42.140Z,972.46
2018-06-18T10:08:42.156Z,972.45
2018-06-18T10:09:42.056Z,972.46
2018-06-18T10:10:42.017Z,972.44
2018-06-18T10:11:41.938Z,972.41
2018-06-18T10:12:41.897Z,972.38
2018-06-18T10:13:41.855Z,972.37
2018-06-18T10:14:41.843Z,972.36
2018-06-18T10:15:41.771Z,972.34
2018-06-18T10:16:41.734Z,972.38
2018-06-18T10:17:41.688Z,972.41
2018-06-18T10:18:41.682Z,972.40
2018-06-18T10:19:41.640Z,972.45
2018-06-18T10:20:41.568Z,972.43
2018-06-18T10:21:41.523Z,972.41
2018-06-18T10:22:41.483Z,972.43
2018-06-18T10:23:41.439Z,972.42
2018-06-18T10:24:41.438Z,972.47
2018-06-18T10:25:41.357Z,972.48
2018-06-18T10:26:41.314Z,972.46
2018-06-18T10:27:41.281Z,972.49
2018-06-18T10:28:41.232Z,972.50
2018-06-18T10:29:41.222Z,972.45
2018-06-18T10:30:41.180Z,972.40
2018-06-18T10:31:41.109Z,972.41
2018-06-18T10:32:41.067Z,972.37
2018-06-18T10:33:41.023Z,972.39
2018-06-18T10:34:40.980Z,972.42
2018-06-18T10:35:40.980Z,972.40
2018-06-18T10:36:40.900Z,972.42
2018-06-18T10:37:40.857Z,972.42
2018-06-18T10:38:40.818Z,972.45
2018-06-18T10:39:40.776Z,972.46
2018-06-18T10:40:40.766Z,972.46
2018-06-18T10:41:40.727Z,972.47
2018-06-18T10:42:40.650Z,972.49
2018-06-18T10:43:40.608Z,972.48
2018-06-18T10:44:40.576Z,972.51
2018-06-18T10:45:40.526Z,972.50
2018-06-18T10:46:40.518Z,972.50
2018-06-18T10:47:40.444Z,972.48
2018-06-18T10:48:40.402Z,972.53
2018-06-18T10:49:40.370Z,972.49
2018-06-18T10:50:40.324Z,972.53
2018-06-18T10:51:40.312Z,972.53
2018-06-18T10:52:40.271Z,972.54
2018-06-18T10:53:40.199Z,972.53
2018-06-18T10:54:40.155Z,972.53
2018-06-18T10:55:40.115Z,972.55
2018-06-18T10:56:40.077Z,972.61
2018-06-18T10:57:40.068Z,972.62
2018-06-18T10:58:40.023Z,972.54
2018-06-18T10:59:39.981Z,972.56
2018-06-18T11:00:39.911Z,972.56
2018-06-18T11:01:39.873Z,972.54
2018-06-18T11:02:39.836Z,972.53
2018-06-18T11:03:39.795Z,972.51
2018-06-18T11:04:39.778Z,972.51
2018-06-18T11:05:39.706Z,972.50
2018-06-18T11:06:39.696Z,972.47
2018-06-18T11:07:39.624Z,972.52
2018-06-18T11:08:39.582Z,972.53
2018-06-18T11:09:39.541Z,972.54
2018-06-18T11:10:39.501Z,972.51
2018-06-18T11:11:39.493Z,972.52
2018-06-18T11:12:39.419Z,972.49
2018-06-18T11:13:39.380Z,972.46
2018-06-18T11:14:39.340Z,972.49
2018-06-18T11:15:39.298Z,972.46
2018-06-18T11:16:39.440Z,972.48
2018-06-18T11:17:39.215Z,972.45
2018-06-18T11:18:39.177Z,972.49
2018-06-18T11:19:39.173Z,972.49
2018-06-18T11:20:39.101Z,972.47
2018-06-18T11:21:39.055Z,972.50
2018-06-18T11:22:39.018Z,972.47
2018-06-18T11:23:38.972Z,972.46
2018-06-18T11:24:38.963Z,972.42
2018-06-18T11:25:38.892Z,972.42
2018-06-18T11:26:38.886Z,972.38
2018-06-18T11:27:38.811Z,972.39
2018-06-18T11:28:38.781Z,972.40
2018-06-18T11:29:38.775Z,972.33
2018-06-18T11:30:38.690Z,972.29
2018-06-18T11:31:38.648Z,972.28
2018-06-18T11:32:38.715Z,972.31
2018-06-18T11:33:38.567Z,972.30
2018-06-18T11:34:38.563Z,972.34
2018-06-18T11:35:38.548Z,972.35
2018-06-18T11:36:38.449Z,972.37
2018-06-18T11:37:38.418Z,972.29
2018-06-18T11:38:38.364Z,972.26
2018-06-18T11:39:38.358Z,972.24
2018-06-18T11:40:38.336Z,972.30
2018-06-18T11:41:38.276Z,972.30
2018-06-18T11:42:38.201Z,972.32
2018-06-18T11:43:38.175Z,972.33
2018-06-18T11:44:38.155Z,972.34
2018-06-18T11:45:38.082Z,972.36
2018-06-18T11:46:38.041Z,972.41
2018-06-18T11:47:38.003Z,972.35
2018-06-18T11:48:37.962Z,972.35
2018-06-18T11:49:37.954Z,972.31
2018-06-18T11:50:37.881Z,972.32
2018-06-18T11:51:37.837Z,972.37
2018-06-18T11:52:37.909Z,972.47
2018-06-18T11:53:37.759Z,972.48
2018-06-18T11:54:37.716Z,972.36
2018-06-18T11:55:37.679Z,972.39
2018-06-18T11:56:37.671Z,972.30
2018-06-18T11:57:37.640Z,972.37
2018-06-18T11:58:37.556Z,972.30
2018-06-18T11:59:37.517Z,972.39
2018-06-18T12:00:37.480Z,972.31
2018-06-18T12:01:37.439Z,972.27
2018-06-18T12:02:37.429Z,972.31
2018-06-18T12:03:37.364Z,972.28
2018-06-18T12:04:37.317Z,972.33
2018-06-18T12:05:37.315Z,972.37
2018-06-18T12:06:37.235Z,972.30
2018-06-18T12:07:37.198Z,972.35
2018-06-18T12:08:37.156Z,972.37
2018-06-18T12:09:37.133Z,972.38
2018-06-18T12:10:37.107Z,972.40
2018-06-18T12:11:37.075Z,972.39
2018-06-18T12:12:36.999Z,972.43
2018-06-18T12:13:36.960Z,972.47
2018-06-18T12:14:36.921Z,972.47
2018-06-18T12:15:36.886Z,972.44
2018-06-18T12:16:36.875Z,972.39
2018-06-18T12:17:36.797Z,972.43
2018-06-18T12:18:36.757Z,972.39
2018-06-18T12:19:36.717Z,972.39
2018-06-18T12:20:36.679Z,972.41
2018-06-18T12:21:36.670Z,972.43
2018-06-18T12:22:36.629Z,972.41
2018-06-18T12:23:36.556Z,972.39
2018-06-18T12:24:36.514Z,972.41
2018-06-18T12:25:36.474Z,972.37
2018-06-18T12:26:36.439Z,972.39
2018-06-18T12:27:36.436Z,972.33